sensor_id;sensor_type;location;lat;lon;timestamp;P1;durP1;ratioP1;P2;durP2;ratioP2
23590;SDS011;11973;52.098;7.582;2022-08-01T00:01:07;11.63;;;10.52;;
23590;SDS011;11973;52.098;7.582;2022-08-01T00:03:32;17.00;;;11.32;;
23590;SDS011;11973;52.098;7.582;2022-08-01T00:06:03;12.43;;;10.73;;
23590;SDS011;11973;52.098;7.582;2022-08-01T00:08:29;13.18;;;9.73;;
23590;SDS011;11973;52.098;7.582;2022-08-01T00:10:55;17.23;;;10.63;;
23590;SDS011;11973;52.098;7.582;2022-08-01T00:13:21;10.82;;;9.73;;
23590;SDS011;11973;52.098;7.582;2022-08-01T00:15:50;13.95;;;10.15;;
23590;SDS011;11973;52.098;7.582;2022-08-01T00:18:17;12.82;;;9.52;;
23590;SDS011;11973;52.098;7.582;2022-08-01T00:20:42;11.18;;;10.07;;
23590;SDS011;11973;52.098;7.582;2022-08-01T00:23:08;12.50;;;9.95;;
23590;SDS011;11973;52.098;7.582;2022-08-01T00:25:40;17.98;;;10.70;;
23590;SDS011;11973;52.098;7.582;2022-08-01T00:28:06;14.15;;;10.38;;
23590;SDS011;11973;52.098;7.582;2022-08-01T00:30:34;13.15;;;10.10;;
23590;SDS011;11973;52.098;7.582;2022-08-01T00:33:00;11.07;;;9.85;;
23590;SDS011;11973;52.098;7.582;2022-08-01T00:35:26;13.38;;;9.60;;
23590;SDS011;11973;52.098;7.582;2022-08-01T00:37:52;11.95;;;10.13;;
23590;SDS011;11973;52.098;7.582;2022-08-01T00:40:18;12.38;;;9.85;;
23590;SDS011;11973;52.098;7.582;2022-08-01T00:42:43;16.42;;;9.73;;
23590;SDS011;11973;52.098;7.582;2022-08-01T00:45:12;9.77;;;8.77;;
23590;SDS011;11973;52.098;7.582;2022-08-01T00:47:38;13.80;;;9.05;;
23590;SDS011;11973;52.098;7.582;2022-08-01T00:50:05;10.50;;;8.43;;
23590;SDS011;11973;52.098;7.582;2022-08-01T00:52:31;8.52;;;7.63;;
23590;SDS011;11973;52.098;7.582;2022-08-01T00:54:58;7.95;;;7.10;;
23590;SDS011;11973;52.098;7.582;2022-08-01T00:57:24;8.10;;;7.38;;
23590;SDS011;11973;52.098;7.582;2022-08-01T00:59:50;8.05;;;7.00;;
23590;SDS011;11973;52.098;7.582;2022-08-01T01:02:17;7.93;;;6.65;;
23590;SDS011;11973;52.098;7.582;2022-08-01T01:04:43;6.68;;;6.07;;
23590;SDS011;11973;52.098;7.582;2022-08-01T01:07:13;6.63;;;5.63;;
23590;SDS011;11973;52.098;7.582;2022-08-01T01:10:00;6.43;;;5.93;;
23590;SDS011;11973;52.098;7.582;2022-08-01T01:17:58;5.30;;;5.10;;
23590;SDS011;11973;52.098;7.582;2022-08-01T01:20:30;4.97;;;4.78;;
23590;SDS011;11973;52.098;7.582;2022-08-01T01:23:04;5.30;;;4.90;;
23590;SDS011;11973;52.098;7.582;2022-08-01T01:25:46;3.90;;;3.60;;
23590;SDS011;11973;52.098;7.582;2022-08-01T01:31:25;3.30;;;3.15;;
23590;SDS011;11973;52.098;7.582;2022-08-01T01:33:53;3.22;;;3.13;;
23590;SDS011;11973;52.098;7.582;2022-08-01T01:36:24;2.90;;;2.75;;
23590;SDS011;11973;52.098;7.582;2022-08-01T01:38:51;2.65;;;2.45;;
23590;SDS011;11973;52.098;7.582;2022-08-01T01:41:19;2.67;;;2.58;;
23590;SDS011;11973;52.098;7.582;2022-08-01T01:43:47;2.55;;;2.45;;
23590;SDS011;11973;52.098;7.582;2022-08-01T01:46:15;2.67;;;2.67;;
23590;SDS011;11973;52.098;7.582;2022-08-01T01:48:44;2.72;;;2.53;;
23590;SDS011;11973;52.098;7.582;2022-08-01T01:51:11;2.72;;;2.63;;
23590;SDS011;11973;52.098;7.582;2022-08-01T01:53:39;2.55;;;2.55;;
23590;SDS011;11973;52.098;7.582;2022-08-01T01:56:06;2.63;;;2.53;;
23590;SDS011;11973;52.098;7.582;2022-08-01T01:58:33;2.65;;;2.55;;
23590;SDS011;11973;52.098;7.582;2022-08-01T02:01:02;2.45;;;2.42;;
23590;SDS011;11973;52.098;7.582;2022-08-01T02:03:28;2.60;;;2.50;;
23590;SDS011;11973;52.098;7.582;2022-08-01T02:05:56;2.92;;;2.63;;
23590;SDS011;11973;52.098;7.582;2022-08-01T02:08:22;2.80;;;2.70;;
23590;SDS011;11973;52.098;7.582;2022-08-01T02:10:50;3.25;;;2.95;;
23590;SDS011;11973;52.098;7.582;2022-08-01T02:13:37;3.08;;;2.72;;
23590;SDS011;11973;52.098;7.582;2022-08-01T02:16:05;3.10;;;2.70;;
23590;SDS011;11973;52.098;7.582;2022-08-01T02:18:33;3.40;;;3.20;;
23590;SDS011;11973;52.098;7.582;2022-08-01T02:21:00;3.63;;;3.28;;
23590;SDS011;11973;52.098;7.582;2022-08-01T02:23:31;3.28;;;3.28;;
23590;SDS011;11973;52.098;7.582;2022-08-01T02:25:59;3.60;;;3.50;;
23590;SDS011;11973;52.098;7.582;2022-08-01T02:28:29;3.83;;;3.55;;
23590;SDS011;11973;52.098;7.582;2022-08-01T02:31:10;4.07;;;3.97;;
23590;SDS011;11973;52.098;7.582;2022-08-01T02:33:45;5.45;;;4.50;;
23590;SDS011;11973;52.098;7.582;2022-08-01T02:36:16;5.75;;;5.32;;
23590;SDS011;11973;52.098;7.582;2022-08-01T02:38:44;6.50;;;5.55;;
23590;SDS011;11973;52.098;7.582;2022-08-01T02:41:13;9.18;;;6.30;;
23590;SDS011;11973;52.098;7.582;2022-08-01T02:43:45;7.07;;;6.38;;
23590;SDS011;11973;52.098;7.582;2022-08-01T02:46:17;7.03;;;6.50;;
23590;SDS011;11973;52.098;7.582;2022-08-01T02:48:48;7.80;;;6.90;;
23590;SDS011;11973;52.098;7.582;2022-08-01T02:51:17;8.45;;;7.05;;
23590;SDS011;11973;52.098;7.582;2022-08-01T02:53:46;11.00;;;7.65;;
23590;SDS011;11973;52.098;7.582;2022-08-01T02:56:13;12.15;;;8.07;;
23590;SDS011;11973;52.098;7.582;2022-08-01T02:58:40;10.13;;;8.75;;
23590;SDS011;11973;52.098;7.582;2022-08-01T03:01:08;11.05;;;8.38;;
23590;SDS011;11973;52.098;7.582;2022-08-01T03:03:36;9.35;;;8.25;;
23590;SDS011;11973;52.098;7.582;2022-08-01T03:06:03;14.07;;;8.20;;
23590;SDS011;11973;52.098;7.582;2022-08-01T03:08:29;11.82;;;8.73;;
23590;SDS011;11973;52.098;7.582;2022-08-01T03:10:56;10.65;;;8.32;;
23590;SDS011;11973;52.098;7.582;2022-08-01T03:13:24;9.00;;;8.10;;
23590;SDS011;11973;52.098;7.582;2022-08-01T03:15:52;9.88;;;8.57;;
23590;SDS011;11973;52.098;7.582;2022-08-01T03:18:20;14.45;;;8.40;;
23590;SDS011;11973;52.098;7.582;2022-08-01T03:20:49;13.80;;;8.43;;
23590;SDS011;11973;52.098;7.582;2022-08-01T03:23:17;10.32;;;8.43;;
23590;SDS011;11973;52.098;7.582;2022-08-01T03:25:46;10.10;;;8.45;;
23590;SDS011;11973;52.098;7.582;2022-08-01T03:28:15;8.00;;;7.13;;
23590;SDS011;11973;52.098;7.582;2022-08-01T03:30:42;7.97;;;7.28;;
23590;SDS011;11973;52.098;7.582;2022-08-01T03:33:09;6.60;;;6.05;;
23590;SDS011;11973;52.098;7.582;2022-08-01T03:35:36;8.68;;;6.15;;
23590;SDS011;11973;52.098;7.582;2022-08-01T03:38:05;6.75;;;6.15;;
23590;SDS011;11973;52.098;7.582;2022-08-01T03:40:37;6.18;;;5.60;;
23590;SDS011;11973;52.098;7.582;2022-08-01T03:43:11;5.53;;;5.28;;
23590;SDS011;11973;52.098;7.582;2022-08-01T03:45:51;7.32;;;5.38;;
23590;SDS011;11973;52.098;7.582;2022-08-01T03:48:27;6.15;;;5.70;;
23590;SDS011;11973;52.098;7.582;2022-08-01T03:50:56;6.20;;;5.90;;
23590;SDS011;11973;52.098;7.582;2022-08-01T03:53:25;8.43;;;6.28;;
23590;SDS011;11973;52.098;7.582;2022-08-01T03:55:54;6.72;;;6.07;;
23590;SDS011;11973;52.098;7.582;2022-08-01T03:58:23;6.53;;;6.00;;
23590;SDS011;11973;52.098;7.582;2022-08-01T04:00:50;5.70;;;5.22;;
23590;SDS011;11973;52.098;7.582;2022-08-01T04:03:17;5.72;;;5.43;;
23590;SDS011;11973;52.098;7.582;2022-08-01T04:05:43;3.88;;;3.78;;
23590;SDS011;11973;52.098;7.582;2022-08-01T04:08:09;4.07;;;3.67;;
23590;SDS011;11973;52.098;7.582;2022-08-01T04:10:36;3.78;;;3.58;;
23590;SDS011;11973;52.098;7.582;2022-08-01T04:13:02;3.55;;;3.42;;
23590;SDS011;11973;52.098;7.582;2022-08-01T05:17:34;6.43;;;6.00;;
23590;SDS011;11973;52.098;7.582;2022-08-01T05:20:00;7.53;;;6.93;;
23590;SDS011;11973;52.098;7.582;2022-08-01T05:22:26;7.15;;;6.65;;
23590;SDS011;11973;52.098;7.582;2022-08-01T05:24:52;7.53;;;6.72;;
23590;SDS011;11973;52.098;7.582;2022-08-01T05:27:18;7.05;;;6.55;;
23590;SDS011;11973;52.098;7.582;2022-08-01T05:29:43;7.03;;;6.60;;
23590;SDS011;11973;52.098;7.582;2022-08-01T05:32:09;6.85;;;6.35;;
23590;SDS011;11973;52.098;7.582;2022-08-01T05:34:35;7.32;;;6.72;;
23590;SDS011;11973;52.098;7.582;2022-08-01T05:37:01;7.82;;;7.30;;
23590;SDS011;11973;52.098;7.582;2022-08-01T05:39:27;6.85;;;6.43;;
23590;SDS011;11973;52.098;7.582;2022-08-01T05:41:53;6.30;;;5.97;;
23590;SDS011;11973;52.098;7.582;2022-08-01T05:44:19;7.15;;;6.70;;
23590;SDS011;11973;52.098;7.582;2022-08-01T05:46:45;7.53;;;7.03;;
23590;SDS011;11973;52.098;7.582;2022-08-01T05:49:11;7.13;;;6.38;;
23590;SDS011;11973;52.098;7.582;2022-08-01T05:51:37;6.35;;;6.05;;
23590;SDS011;11973;52.098;7.582;2022-08-01T05:54:02;7.03;;;6.63;;
23590;SDS011;11973;52.098;7.582;2022-08-01T05:56:28;7.50;;;6.90;;
23590;SDS011;11973;52.098;7.582;2022-08-01T05:58:54;6.93;;;6.50;;
23590;SDS011;11973;52.098;7.582;2022-08-01T06:01:20;6.75;;;6.43;;
23590;SDS011;11973;52.098;7.582;2022-08-01T06:03:46;7.75;;;7.25;;
23590;SDS011;11973;52.098;7.582;2022-08-01T06:06:12;7.15;;;6.65;;
23590;SDS011;11973;52.098;7.582;2022-08-01T06:08:39;7.13;;;6.63;;
23590;SDS011;11973;52.098;7.582;2022-08-01T06:11:05;7.28;;;6.90;;
23590;SDS011;11973;52.098;7.582;2022-08-01T06:13:32;6.97;;;6.47;;
23590;SDS011;11973;52.098;7.582;2022-08-01T06:15:58;7.32;;;6.95;;
23590;SDS011;11973;52.098;7.582;2022-08-01T06:18:23;7.72;;;7.22;;
23590;SDS011;11973;52.098;7.582;2022-08-01T06:20:49;7.45;;;7.05;;
23590;SDS011;11973;52.098;7.582;2022-08-01T06:23:15;7.78;;;7.28;;
23590;SDS011;11973;52.098;7.582;2022-08-01T06:25:41;7.72;;;7.22;;
23590;SDS011;11973;52.098;7.582;2022-08-01T06:28:07;7.82;;;7.32;;
23590;SDS011;11973;52.098;7.582;2022-08-01T06:30:33;7.70;;;7.30;;
23590;SDS011;11973;52.098;7.582;2022-08-01T06:32:59;7.53;;;7.05;;
23590;SDS011;11973;52.098;7.582;2022-08-01T06:35:25;8.10;;;7.53;;
23590;SDS011;11973;52.098;7.582;2022-08-01T06:37:52;8.63;;;8.02;;
23590;SDS011;11973;52.098;7.582;2022-08-01T06:40:17;7.68;;;7.22;;
23590;SDS011;11973;52.098;7.582;2022-08-01T06:42:43;6.38;;;6.13;;
23590;SDS011;11973;52.098;7.582;2022-08-01T06:45:11;6.10;;;5.80;;
23590;SDS011;11973;52.098;7.582;2022-08-01T06:47:38;6.05;;;5.82;;
23590;SDS011;11973;52.098;7.582;2022-08-01T06:50:05;7.35;;;6.25;;
23590;SDS011;11973;52.098;7.582;2022-08-01T06:52:32;6.25;;;5.93;;
23590;SDS011;11973;52.098;7.582;2022-08-01T06:54:57;6.47;;;6.03;;
23590;SDS011;11973;52.098;7.582;2022-08-01T06:57:24;6.10;;;5.80;;
23590;SDS011;11973;52.098;7.582;2022-08-01T06:59:50;6.15;;;5.85;;
23590;SDS011;11973;52.098;7.582;2022-08-01T07:02:16;5.82;;;5.60;;
23590;SDS011;11973;52.098;7.582;2022-08-01T07:04:42;6.13;;;5.85;;
23590;SDS011;11973;52.098;7.582;2022-08-01T07:07:08;5.80;;;5.65;;
23590;SDS011;11973;52.098;7.582;2022-08-01T07:09:34;5.82;;;5.63;;
23590;SDS011;11973;52.098;7.582;2022-08-01T07:11:59;5.90;;;5.65;;
23590;SDS011;11973;52.098;7.582;2022-08-01T07:14:25;6.68;;;6.13;;
23590;SDS011;11973;52.098;7.582;2022-08-01T07:16:51;6.53;;;6.22;;
23590;SDS011;11973;52.098;7.582;2022-08-01T07:19:17;6.22;;;5.93;;
23590;SDS011;11973;52.098;7.582;2022-08-01T07:21:43;6.78;;;6.35;;
23590;SDS011;11973;52.098;7.582;2022-08-01T07:24:09;6.60;;;6.40;;
23590;SDS011;11973;52.098;7.582;2022-08-01T07:26:38;6.53;;;6.32;;
23590;SDS011;11973;52.098;7.582;2022-08-01T07:29:04;7.00;;;6.60;;
23590;SDS011;11973;52.098;7.582;2022-08-01T07:31:30;6.25;;;6.05;;
23590;SDS011;11973;52.098;7.582;2022-08-01T07:33:56;5.65;;;5.55;;
23590;SDS011;11973;52.098;7.582;2022-08-01T07:36:22;5.15;;;5.05;;
23590;SDS011;11973;52.098;7.582;2022-08-01T07:38:48;5.18;;;4.90;;
23590;SDS011;11973;52.098;7.582;2022-08-01T07:41:14;4.50;;;4.40;;
23590;SDS011;11973;52.098;7.582;2022-08-01T07:43:39;5.22;;;4.78;;
23590;SDS011;11973;52.098;7.582;2022-08-01T07:46:05;4.93;;;4.93;;
23590;SDS011;11973;52.098;7.582;2022-08-01T07:48:31;5.30;;;5.18;;
23590;SDS011;11973;52.098;7.582;2022-08-01T07:50:57;4.95;;;4.85;;
23590;SDS011;11973;52.098;7.582;2022-08-01T07:53:24;6.10;;;5.90;;
23590;SDS011;11973;52.098;7.582;2022-08-01T07:55:49;6.60;;;6.40;;
23590;SDS011;11973;52.098;7.582;2022-08-01T07:58:16;6.53;;;6.32;;
23590;SDS011;11973;52.098;7.582;2022-08-01T08:00:41;5.70;;;5.60;;
23590;SDS011;11973;52.098;7.582;2022-08-01T08:03:07;5.20;;;5.05;;
23590;SDS011;11973;52.098;7.582;2022-08-01T08:05:33;6.15;;;5.90;;
23590;SDS011;11973;52.098;7.582;2022-08-01T08:08:05;6.93;;;6.57;;
23590;SDS011;11973;52.098;7.582;2022-08-01T08:10:32;6.00;;;5.80;;
23590;SDS011;11973;52.098;7.582;2022-08-01T08:12:57;6.20;;;6.10;;
23590;SDS011;11973;52.098;7.582;2022-08-01T08:15:23;7.35;;;7.00;;
23590;SDS011;11973;52.098;7.582;2022-08-01T08:17:49;5.25;;;5.15;;
23590;SDS011;11973;52.098;7.582;2022-08-01T08:20:15;5.32;;;5.22;;
23590;SDS011;11973;52.098;7.582;2022-08-01T08:22:40;5.88;;;5.45;;
23590;SDS011;11973;52.098;7.582;2022-08-01T08:25:07;5.75;;;5.45;;
23590;SDS011;11973;52.098;7.582;2022-08-01T08:27:33;5.65;;;5.45;;
23590;SDS011;11973;52.098;7.582;2022-08-01T08:30:00;4.95;;;4.82;;
23590;SDS011;11973;52.098;7.582;2022-08-01T08:32:26;4.70;;;4.57;;
23590;SDS011;11973;52.098;7.582;2022-08-01T08:34:51;4.38;;;4.07;;
23590;SDS011;11973;52.098;7.582;2022-08-01T08:37:17;3.55;;;3.45;;
23590;SDS011;11973;52.098;7.582;2022-08-01T08:39:43;3.65;;;3.35;;
23590;SDS011;11973;52.098;7.582;2022-08-01T08:42:12;2.38;;;2.28;;
23590;SDS011;11973;52.098;7.582;2022-08-01T08:44:40;2.58;;;2.47;;
23590;SDS011;11973;52.098;7.582;2022-08-01T08:47:06;2.63;;;2.53;;
23590;SDS011;11973;52.098;7.582;2022-08-01T08:49:35;2.22;;;2.22;;
23590;SDS011;11973;52.098;7.582;2022-08-01T08:52:02;3.05;;;2.85;;
23590;SDS011;11973;52.098;7.582;2022-08-01T08:54:29;2.70;;;2.60;;
23590;SDS011;11973;52.098;7.582;2022-08-01T08:56:56;2.10;;;2.00;;
23590;SDS011;11973;52.098;7.582;2022-08-01T08:59:22;2.05;;;1.95;;
23590;SDS011;11973;52.098;7.582;2022-08-01T09:01:51;1.67;;;1.63;;
23590;SDS011;11973;52.098;7.582;2022-08-01T09:04:17;1.67;;;1.67;;
23590;SDS011;11973;52.098;7.582;2022-08-01T09:06:46;1.75;;;1.65;;
23590;SDS011;11973;52.098;7.582;2022-08-01T09:09:11;2.28;;;2.17;;
23590;SDS011;11973;52.098;7.582;2022-08-01T09:11:37;2.60;;;2.33;;
23590;SDS011;11973;52.098;7.582;2022-08-01T09:14:13;2.10;;;2.10;;
23590;SDS011;11973;52.098;7.582;2022-08-01T09:16:47;1.83;;;1.80;;
23590;SDS011;11973;52.098;7.582;2022-08-01T09:19:25;1.98;;;1.88;;
23590;SDS011;11973;52.098;7.582;2022-08-01T09:22:00;1.52;;;1.52;;
23590;SDS011;11973;52.098;7.582;2022-08-01T09:24:29;1.85;;;1.85;;
23590;SDS011;11973;52.098;7.582;2022-08-01T09:26:56;1.70;;;1.70;;
23590;SDS011;11973;52.098;7.582;2022-08-01T09:29:24;1.65;;;1.65;;
23590;SDS011;11973;52.098;7.582;2022-08-01T09:31:52;1.80;;;1.77;;
23590;SDS011;11973;52.098;7.582;2022-08-01T09:34:26;1.50;;;1.50;;
23590;SDS011;11973;52.098;7.582;2022-08-01T09:36:54;2.05;;;1.60;;
23590;SDS011;11973;52.098;7.582;2022-08-01T09:39:26;1.60;;;1.50;;
23590;SDS011;11973;52.098;7.582;2022-08-01T09:41:57;2.95;;;1.60;;
23590;SDS011;11973;52.098;7.582;2022-08-01T09:44:41;1.73;;;1.73;;
23590;SDS011;11973;52.098;7.582;2022-08-01T09:47:09;1.75;;;1.65;;
23590;SDS011;11973;52.098;7.582;2022-08-01T09:49:37;1.70;;;1.60;;
23590;SDS011;11973;52.098;7.582;2022-08-01T09:52:12;1.40;;;1.30;;
23590;SDS011;11973;52.098;7.582;2022-08-01T09:54:38;1.20;;;1.20;;
23590;SDS011;11973;52.098;7.582;2022-08-01T09:57:09;1.60;;;1.35;;
23590;SDS011;11973;52.098;7.582;2022-08-01T09:59:40;1.83;;;1.83;;
23590;SDS011;11973;52.098;7.582;2022-08-01T10:02:09;1.95;;;1.70;;
23590;SDS011;11973;52.098;7.582;2022-08-01T10:04:45;1.70;;;1.45;;
23590;SDS011;11973;52.098;7.582;2022-08-01T10:07:13;2.53;;;1.80;;
23590;SDS011;11973;52.098;7.582;2022-08-01T10:09:41;1.80;;;1.80;;
23590;SDS011;11973;52.098;7.582;2022-08-01T10:12:08;2.17;;;2.17;;
23590;SDS011;11973;52.098;7.582;2022-08-01T10:14:36;2.17;;;2.08;;
23590;SDS011;11973;52.098;7.582;2022-08-01T10:17:04;4.32;;;2.28;;
23590;SDS011;11973;52.098;7.582;2022-08-01T10:19:33;2.20;;;2.10;;
23590;SDS011;11973;52.098;7.582;2022-08-01T10:22:00;2.38;;;2.38;;
23590;SDS011;11973;52.098;7.582;2022-08-01T10:24:28;2.40;;;2.30;;
23590;SDS011;11973;52.098;7.582;2022-08-01T10:26:59;2.65;;;2.40;;
23590;SDS011;11973;52.098;7.582;2022-08-01T10:29:31;2.30;;;2.30;;
23590;SDS011;11973;52.098;7.582;2022-08-01T10:32:03;2.90;;;2.70;;
23590;SDS011;11973;52.098;7.582;2022-08-01T10:34:31;2.08;;;2.03;;
23590;SDS011;11973;52.098;7.582;2022-08-01T10:36:58;2.75;;;2.63;;
23590;SDS011;11973;52.098;7.582;2022-08-01T10:39:25;2.50;;;2.33;;
23590;SDS011;11973;52.098;7.582;2022-08-01T10:41:55;2.88;;;2.78;;
23590;SDS011;11973;52.098;7.582;2022-08-01T10:44:21;2.70;;;2.55;;
23590;SDS011;11973;52.098;7.582;2022-08-01T10:47:14;2.78;;;2.55;;
23590;SDS011;11973;52.098;7.582;2022-08-01T10:52:38;3.10;;;2.40;;
23590;SDS011;11973;52.098;7.582;2022-08-01T10:55:07;3.40;;;3.10;;
23590;SDS011;11973;52.098;7.582;2022-08-01T10:57:41;2.67;;;2.55;;
23590;SDS011;11973;52.098;7.582;2022-08-01T11:00:08;2.33;;;2.30;;
23590;SDS011;11973;52.098;7.582;2022-08-01T11:02:41;3.13;;;2.90;;
23590;SDS011;11973;52.098;7.582;2022-08-01T11:05:28;2.97;;;2.90;;
23590;SDS011;11973;52.098;7.582;2022-08-01T11:07:57;3.42;;;3.33;;
23590;SDS011;11973;52.098;7.582;2022-08-01T11:13:02;4.57;;;3.85;;
23590;SDS011;11973;52.098;7.582;2022-08-01T11:15:30;3.33;;;2.88;;
23590;SDS011;11973;52.098;7.582;2022-08-01T11:17:57;3.20;;;3.10;;
23590;SDS011;11973;52.098;7.582;2022-08-01T11:20:26;3.53;;;3.38;;
23590;SDS011;11973;52.098;7.582;2022-08-01T11:25:25;3.28;;;3.00;;
23590;SDS011;11973;52.098;7.582;2022-08-01T11:30:42;2.70;;;2.60;;
23590;SDS011;11973;52.098;7.582;2022-08-01T11:33:09;4.28;;;2.63;;
23590;SDS011;11973;52.098;7.582;2022-08-01T11:35:37;1.92;;;1.90;;
23590;SDS011;11973;52.098;7.582;2022-08-01T11:38:22;2.03;;;1.95;;
23590;SDS011;11973;52.098;7.582;2022-08-01T11:52:06;1.40;;;1.30;;
23590;SDS011;11973;52.098;7.582;2022-08-01T11:54:44;1.08;;;1.00;;
23590;SDS011;11973;52.098;7.582;2022-08-01T11:57:17;2.95;;;1.50;;
23590;SDS011;11973;52.098;7.582;2022-08-01T11:59:46;1.17;;;1.08;;
23590;SDS011;11973;52.098;7.582;2022-08-01T12:02:24;1.13;;;1.13;;
23590;SDS011;11973;52.098;7.582;2022-08-01T12:05:11;1.00;;;1.00;;
23590;SDS011;11973;52.098;7.582;2022-08-01T12:07:39;2.13;;;1.15;;
23590;SDS011;11973;52.098;7.582;2022-08-01T12:10:11;1.13;;;1.00;;
23590;SDS011;11973;52.098;7.582;2022-08-01T12:12:46;0.90;;;0.90;;
23590;SDS011;11973;52.098;7.582;2022-08-01T12:15:14;1.13;;;0.82;;
23590;SDS011;11973;52.098;7.582;2022-08-01T12:20:10;1.65;;;0.82;;
23590;SDS011;11973;52.098;7.582;2022-08-01T12:22:37;1.00;;;0.90;;
23590;SDS011;11973;52.098;7.582;2022-08-01T12:25:06;0.90;;;0.90;;
23590;SDS011;11973;52.098;7.582;2022-08-01T12:27:41;1.85;;;1.00;;
23590;SDS011;11973;52.098;7.582;2022-08-01T12:30:14;2.15;;;1.20;;
23590;SDS011;11973;52.098;7.582;2022-08-01T12:32:47;1.42;;;1.00;;
23590;SDS011;11973;52.098;7.582;2022-08-01T12:35:14;2.47;;;1.00;;
23590;SDS011;11973;52.098;7.582;2022-08-01T12:37:49;1.30;;;1.23;;
23590;SDS011;11973;52.098;7.582;2022-08-01T12:42:48;3.88;;;1.23;;
23590;SDS011;11973;52.098;7.582;2022-08-01T12:45:20;1.15;;;1.15;;
23590;SDS011;11973;52.098;7.582;2022-08-01T12:47:49;1.98;;;1.45;;
23590;SDS011;11973;52.098;7.582;2022-08-01T12:50:17;2.28;;;1.73;;
23590;SDS011;11973;52.098;7.582;2022-08-01T12:52:45;5.35;;;1.80;;
23590;SDS011;11973;52.098;7.582;2022-08-01T12:55:13;1.38;;;1.27;;
23590;SDS011;11973;52.098;7.582;2022-08-01T12:57:42;1.70;;;1.55;;
23590;SDS011;11973;52.098;7.582;2022-08-01T13:02:38;2.05;;;1.65;;
23590;SDS011;11973;52.098;7.582;2022-08-01T13:05:05;1.08;;;1.08;;
23590;SDS011;11973;52.098;7.582;2022-08-01T13:07:38;4.35;;;1.85;;
23590;SDS011;11973;52.098;7.582;2022-08-01T13:10:23;2.72;;;1.80;;
23590;SDS011;11973;52.098;7.582;2022-08-01T13:12:54;3.72;;;1.77;;
23590;SDS011;11973;52.098;7.582;2022-08-01T13:15:23;2.22;;;2.00;;
23590;SDS011;11973;52.098;7.582;2022-08-01T13:17:56;3.40;;;2.20;;
23590;SDS011;11973;52.098;7.582;2022-08-01T13:20:24;2.60;;;2.00;;
23590;SDS011;11973;52.098;7.582;2022-08-01T13:22:51;1.95;;;1.70;;
23590;SDS011;11973;52.098;7.582;2022-08-01T13:25:17;2.65;;;1.40;;
23590;SDS011;11973;52.098;7.582;2022-08-01T13:27:43;2.88;;;1.70;;
23590;SDS011;11973;52.098;7.582;2022-08-01T13:30:10;1.90;;;1.80;;
23590;SDS011;11973;52.098;7.582;2022-08-01T13:32:40;2.72;;;2.00;;
23590;SDS011;11973;52.098;7.582;2022-08-01T13:35:09;2.05;;;1.92;;
23590;SDS011;11973;52.098;7.582;2022-08-01T13:37:38;2.33;;;2.03;;
23590;SDS011;11973;52.098;7.582;2022-08-01T13:40:05;1.92;;;1.75;;
23590;SDS011;11973;52.098;7.582;2022-08-01T13:42:32;2.30;;;2.17;;
23590;SDS011;11973;52.098;7.582;2022-08-01T13:44:58;2.10;;;2.00;;
23590;SDS011;11973;52.098;7.582;2022-08-01T13:47:24;2.47;;;1.88;;
23590;SDS011;11973;52.098;7.582;2022-08-01T13:49:49;5.05;;;2.15;;
23590;SDS011;11973;52.098;7.582;2022-08-01T13:52:15;4.90;;;2.50;;
23590;SDS011;11973;52.098;7.582;2022-08-01T13:54:41;2.70;;;2.20;;
23590;SDS011;11973;52.098;7.582;2022-08-01T13:57:07;3.45;;;2.50;;
23590;SDS011;11973;52.098;7.582;2022-08-01T13:59:34;2.15;;;2.13;;
23590;SDS011;11973;52.098;7.582;2022-08-01T14:02:00;2.20;;;2.10;;
23590;SDS011;11973;52.098;7.582;2022-08-01T14:04:26;2.38;;;2.17;;
23590;SDS011;11973;52.098;7.582;2022-08-01T14:06:51;2.38;;;2.17;;
23590;SDS011;11973;52.098;7.582;2022-08-01T14:09:17;2.10;;;2.00;;
23590;SDS011;11973;52.098;7.582;2022-08-01T14:11:44;2.10;;;2.00;;
23590;SDS011;11973;52.098;7.582;2022-08-01T14:14:10;2.40;;;1.65;;
23590;SDS011;11973;52.098;7.582;2022-08-01T14:16:36;2.03;;;1.77;;
23590;SDS011;11973;52.098;7.582;2022-08-01T14:19:02;1.77;;;1.35;;
23590;SDS011;11973;52.098;7.582;2022-08-01T14:21:29;2.10;;;1.35;;
23590;SDS011;11973;52.098;7.582;2022-08-01T14:23:56;1.63;;;1.50;;
23590;SDS011;11973;52.098;7.582;2022-08-01T14:26:22;1.50;;;1.40;;
23590;SDS011;11973;52.098;7.582;2022-08-01T14:28:47;1.35;;;1.25;;
23590;SDS011;11973;52.098;7.582;2022-08-01T14:31:13;4.22;;;1.42;;
23590;SDS011;11973;52.098;7.582;2022-08-01T14:33:39;1.13;;;1.08;;
23590;SDS011;11973;52.098;7.582;2022-08-01T14:36:04;1.77;;;1.33;;
23590;SDS011;11973;52.098;7.582;2022-08-01T14:38:31;1.35;;;0.90;;
23590;SDS011;11973;52.098;7.582;2022-08-01T14:40:56;3.40;;;1.20;;
23590;SDS011;11973;52.098;7.582;2022-08-01T14:43:22;1.40;;;1.30;;
23590;SDS011;11973;52.098;7.582;2022-08-01T14:45:48;1.10;;;1.10;;
23590;SDS011;11973;52.098;7.582;2022-08-01T14:48:16;2.22;;;1.33;;
23590;SDS011;11973;52.098;7.582;2022-08-01T14:50:43;1.95;;;1.05;;
23590;SDS011;11973;52.098;7.582;2022-08-01T14:53:08;3.33;;;1.20;;
23590;SDS011;11973;52.098;7.582;2022-08-01T14:55:34;1.27;;;1.23;;
23590;SDS011;11973;52.098;7.582;2022-08-01T14:58:00;1.83;;;1.23;;
23590;SDS011;11973;52.098;7.582;2022-08-01T15:00:25;1.63;;;1.27;;
23590;SDS011;11973;52.098;7.582;2022-08-01T15:02:51;3.55;;;1.40;;
23590;SDS011;11973;52.098;7.582;2022-08-01T15:05:17;1.25;;;0.90;;
23590;SDS011;11973;52.098;7.582;2022-08-01T15:07:42;1.30;;;1.30;;
23590;SDS011;11973;52.098;7.582;2022-08-01T15:10:08;1.02;;;1.00;;
23590;SDS011;11973;52.098;7.582;2022-08-01T15:12:34;1.95;;;1.25;;
23590;SDS011;11973;52.098;7.582;2022-08-01T15:15:00;1.88;;;1.13;;
23590;SDS011;11973;52.098;7.582;2022-08-01T15:17:27;1.33;;;0.98;;
23590;SDS011;11973;52.098;7.582;2022-08-01T15:19:56;2.15;;;0.90;;
23590;SDS011;11973;52.098;7.582;2022-08-01T15:22:23;4.57;;;1.10;;
23590;SDS011;11973;52.098;7.582;2022-08-01T15:24:50;1.52;;;0.85;;
23590;SDS011;11973;52.098;7.582;2022-08-01T15:27:17;1.33;;;1.13;;
23590;SDS011;11973;52.098;7.582;2022-08-01T15:29:43;1.75;;;0.90;;
23590;SDS011;11973;52.098;7.582;2022-08-01T15:32:10;1.15;;;1.05;;
23590;SDS011;11973;52.098;7.582;2022-08-01T15:34:36;1.08;;;1.08;;
23590;SDS011;11973;52.098;7.582;2022-08-01T15:37:04;0.90;;;0.90;;
23590;SDS011;11973;52.098;7.582;2022-08-01T15:39:31;1.40;;;1.00;;
23590;SDS011;11973;52.098;7.582;2022-08-01T15:41:58;4.07;;;1.27;;
23590;SDS011;11973;52.098;7.582;2022-08-01T15:44:26;2.67;;;1.00;;
23590;SDS011;11973;52.098;7.582;2022-08-01T15:46:51;1.50;;;1.13;;
23590;SDS011;11973;52.098;7.582;2022-08-01T15:49:17;1.02;;;1.02;;
23590;SDS011;11973;52.098;7.582;2022-08-01T15:51:43;0.80;;;0.80;;
23590;SDS011;11973;52.098;7.582;2022-08-01T15:54:09;1.23;;;0.80;;
23590;SDS011;11973;52.098;7.582;2022-08-01T15:56:36;0.90;;;0.90;;
23590;SDS011;11973;52.098;7.582;2022-08-01T15:59:02;0.93;;;0.93;;
23590;SDS011;11973;52.098;7.582;2022-08-01T16:01:28;1.20;;;0.80;;
23590;SDS011;11973;52.098;7.582;2022-08-01T16:03:54;0.80;;;0.80;;
23590;SDS011;11973;52.098;7.582;2022-08-01T16:06:22;1.65;;;0.75;;
23590;SDS011;11973;52.098;7.582;2022-08-01T16:08:48;0.68;;;0.68;;
23590;SDS011;11973;52.098;7.582;2022-08-01T16:11:14;1.05;;;0.80;;
23590;SDS011;11973;52.098;7.582;2022-08-01T16:13:40;0.90;;;0.90;;
23590;SDS011;11973;52.098;7.582;2022-08-01T16:16:07;0.63;;;0.63;;
23590;SDS011;11973;52.098;7.582;2022-08-01T16:18:33;0.80;;;0.80;;
23590;SDS011;11973;52.098;7.582;2022-08-01T16:20:59;1.90;;;0.68;;
23590;SDS011;11973;52.098;7.582;2022-08-01T16:23:25;2.05;;;0.98;;
23590;SDS011;11973;52.098;7.582;2022-08-01T16:25:51;0.82;;;0.82;;
23590;SDS011;11973;52.098;7.582;2022-08-01T16:28:17;1.85;;;0.80;;
23590;SDS011;11973;52.098;7.582;2022-08-01T16:30:43;0.93;;;0.93;;